Bearden, Oklahoma
Current Conditions -  °F | °C
As of 1:15 AM on Friday 31 Oct 2014 (Local Time) from KOKM Reporting Station
Clear Clear  
Wind Chill: 56°   Ceiling: Unl
Heat Index: 56°   Visibility: 10mi
Dew Point: 39°   Wind: 9mph
Humidity: 52%   Direction: 340°NNW
Pressure: 30.19"   Gusts: NA
Location:  35.469°N, 96.2923°W
Report Text: KOKM 310615Z AUTO 34008KT 10SM CLR 14/04 A3019 RMK AO2 T01360040
Loading
Personal Weather Stations






























Interactive Weather Map New forecast layout! Learn more

10-Day Weather Forecast

Advertisements
Track Severe Weather on mobile